Rapid City, South Dakota
Current Conditions -  °F | °C
As of 11:58 PM on Saturday 22 Nov 2014 (Local Time) from KRCA Reporting Station
Overcast Overcast  
Wind Chill: 30°   Ceiling: 10000
Heat Index: 39°   Visibility: 10mi
Dew Point: 28°   Wind: 20mph
Humidity: 62%   Direction: 320°NW
Pressure: 29.51"   Gusts: 24mph
Location:  44.08°N, 103.23°W
Report Text: KRCA 230658Z AUTO 32017G21KT 10SM SCT080 OVC100 04/M02 A2951 RMK AO2 PK WND 33028/04 CIG 080 RWY13 SLP000 T00411025 401421012 $
Loading
Personal Weather Stations






























Interactive Weather Map New forecast layout! Learn more

10-Day Weather Forecast

Advertisements
Track Severe Weather on mobile